sensor_id;sensor_type;location;lat;lon;timestamp;temperature;humidity
4811;DHT22;2419;51.276;6.472;2022-09-21T00:01:12;8.80;99.90
4811;DHT22;2419;51.276;6.472;2022-09-21T00:03:41;8.80;99.90
4811;DHT22;2419;51.276;6.472;2022-09-21T00:06:12;8.70;99.90
4811;DHT22;2419;51.276;6.472;2022-09-21T00:08:40;8.70;99.90
4811;DHT22;2419;51.276;6.472;2022-09-21T00:11:11;8.80;99.90
4811;DHT22;2419;51.276;6.472;2022-09-21T00:13:40;8.80;99.90
4811;DHT22;2419;51.276;6.472;2022-09-21T00:16:10;8.90;99.90
4811;DHT22;2419;51.276;6.472;2022-09-21T00:18:38;8.80;99.90
4811;DHT22;2419;51.276;6.472;2022-09-21T00:21:07;8.70;99.90
4811;DHT22;2419;51.276;6.472;2022-09-21T00:23:38;8.70;99.90
4811;DHT22;2419;51.276;6.472;2022-09-21T00:26:09;8.60;99.90
4811;DHT22;2419;51.276;6.472;2022-09-21T00:28:38;8.60;99.90
4811;DHT22;2419;51.276;6.472;2022-09-21T00:31:09;8.50;99.90
4811;DHT22;2419;51.276;6.472;2022-09-21T00:33:38;8.50;99.90
4811;DHT22;2419;51.276;6.472;2022-09-21T00:36:10;8.50;99.90
4811;DHT22;2419;51.276;6.472;2022-09-21T00:38:40;8.40;99.90
4811;DHT22;2419;51.276;6.472;2022-09-21T00:41:09;8.50;99.90
4811;DHT22;2419;51.276;6.472;2022-09-21T00:43:40;8.40;99.90
4811;DHT22;2419;51.276;6.472;2022-09-21T00:46:13;8.50;99.90
4811;DHT22;2419;51.276;6.472;2022-09-21T00:48:42;8.50;99.90
4811;DHT22;2419;51.276;6.472;2022-09-21T00:51:12;8.60;99.90
4811;DHT22;2419;51.276;6.472;2022-09-21T00:53:42;8.60;99.90
4811;DHT22;2419;51.276;6.472;2022-09-21T00:56:11;8.80;99.90
4811;DHT22;2419;51.276;6.472;2022-09-21T00:58:43;8.70;99.90
4811;DHT22;2419;51.276;6.472;2022-09-21T01:01:13;8.80;99.90
4811;DHT22;2419;51.276;6.472;2022-09-21T01:03:42;8.80;99.90
4811;DHT22;2419;51.276;6.472;2022-09-21T01:06:11;8.90;99.90
4811;DHT22;2419;51.276;6.472;2022-09-21T01:08:41;8.90;99.90
4811;DHT22;2419;51.276;6.472;2022-09-21T01:11:22;8.90;99.90
4811;DHT22;2419;51.276;6.472;2022-09-21T01:14:03;9.00;99.90
4811;DHT22;2419;51.276;6.472;2022-09-21T01:16:42;9.10;99.90
4811;DHT22;2419;51.276;6.472;2022-09-21T01:19:26;9.10;99.90
4811;DHT22;2419;51.276;6.472;2022-09-21T01:22:05;9.00;99.90
4811;DHT22;2419;51.276;6.472;2022-09-21T01:24:49;9.00;99.90
4811;DHT22;2419;51.276;6.472;2022-09-21T01:27:40;9.00;99.90
4811;DHT22;2419;51.276;6.472;2022-09-21T01:30:14;8.80;99.90
4811;DHT22;2419;51.276;6.472;2022-09-21T01:32:47;8.80;99.90
4811;DHT22;2419;51.276;6.472;2022-09-21T01:35:20;8.90;99.90
4811;DHT22;2419;51.276;6.472;2022-09-21T01:37:52;8.90;99.90
4811;DHT22;2419;51.276;6.472;2022-09-21T01:40:30;8.90;99.90
4811;DHT22;2419;51.276;6.472;2022-09-21T01:43:03;8.80;99.90
4811;DHT22;2419;51.276;6.472;2022-09-21T01:45:36;8.80;99.90
4811;DHT22;2419;51.276;6.472;2022-09-21T01:48:06;8.80;99.90
4811;DHT22;2419;51.276;6.472;2022-09-21T01:50:37;8.90;99.90
4811;DHT22;2419;51.276;6.472;2022-09-21T01:53:12;8.90;99.90
4811;DHT22;2419;51.276;6.472;2022-09-21T01:55:43;8.90;99.90
4811;DHT22;2419;51.276;6.472;2022-09-21T01:58:17;8.90;99.90
4811;DHT22;2419;51.276;6.472;2022-09-21T02:00:48;8.80;99.90
4811;DHT22;2419;51.276;6.472;2022-09-21T02:03:24;8.80;99.90
4811;DHT22;2419;51.276;6.472;2022-09-21T02:05:55;8.70;99.90
4811;DHT22;2419;51.276;6.472;2022-09-21T02:08:24;8.70;99.90
4811;DHT22;2419;51.276;6.472;2022-09-21T02:10:53;8.80;99.90
4811;DHT22;2419;51.276;6.472;2022-09-21T02:13:23;8.80;99.90
4811;DHT22;2419;51.276;6.472;2022-09-21T02:16:04;8.80;99.90
4811;DHT22;2419;51.276;6.472;2022-09-21T02:18:42;8.80;99.90
4811;DHT22;2419;51.276;6.472;2022-09-21T02:21:20;8.80;99.90
4811;DHT22;2419;51.276;6.472;2022-09-21T02:23:55;8.80;99.90
4811;DHT22;2419;51.276;6.472;2022-09-21T02:26:28;8.70;99.90
4811;DHT22;2419;51.276;6.472;2022-09-21T02:29:06;8.80;99.90
4811;DHT22;2419;51.276;6.472;2022-09-21T02:31:44;8.70;99.90
4811;DHT22;2419;51.276;6.472;2022-09-21T02:34:19;8.70;99.90
4811;DHT22;2419;51.276;6.472;2022-09-21T02:36:50;8.60;99.90
4811;DHT22;2419;51.276;6.472;2022-09-21T02:39:29;8.50;99.90
4811;DHT22;2419;51.276;6.472;2022-09-21T02:42:04;8.60;99.90
4811;DHT22;2419;51.276;6.472;2022-09-21T02:44:37;8.60;99.90
4811;DHT22;2419;51.276;6.472;2022-09-21T02:47:11;8.50;99.90
4811;DHT22;2419;51.276;6.472;2022-09-21T02:49:45;8.50;99.90
4811;DHT22;2419;51.276;6.472;2022-09-21T02:52:15;8.50;99.90
4811;DHT22;2419;51.276;6.472;2022-09-21T02:54:46;8.40;99.90
4811;DHT22;2419;51.276;6.472;2022-09-21T02:57:19;8.30;99.90
4811;DHT22;2419;51.276;6.472;2022-09-21T02:59:48;8.20;99.90
4811;DHT22;2419;51.276;6.472;2022-09-21T03:02:18;8.30;99.90
4811;DHT22;2419;51.276;6.472;2022-09-21T03:04:47;8.20;99.90
4811;DHT22;2419;51.276;6.472;2022-09-21T03:07:16;8.10;99.90
4811;DHT22;2419;51.276;6.472;2022-09-21T03:09:44;8.10;99.90
4811;DHT22;2419;51.276;6.472;2022-09-21T03:12:12;8.10;99.90
4811;DHT22;2419;51.276;6.472;2022-09-21T03:14:40;8.10;99.90
4811;DHT22;2419;51.276;6.472;2022-09-21T03:17:08;8.20;99.90
4811;DHT22;2419;51.276;6.472;2022-09-21T03:19:37;8.10;99.90
4811;DHT22;2419;51.276;6.472;2022-09-21T03:22:06;8.10;99.90
4811;DHT22;2419;51.276;6.472;2022-09-21T03:24:34;8.00;99.90
4811;DHT22;2419;51.276;6.472;2022-09-21T03:27:16;7.90;99.90
4811;DHT22;2419;51.276;6.472;2022-09-21T03:29:45;7.90;99.90
4811;DHT22;2419;51.276;6.472;2022-09-21T03:32:13;7.80;99.90
4811;DHT22;2419;51.276;6.472;2022-09-21T03:34:43;7.80;99.90
4811;DHT22;2419;51.276;6.472;2022-09-21T03:37:11;7.80;99.90
4811;DHT22;2419;51.276;6.472;2022-09-21T03:39:39;7.80;99.90
4811;DHT22;2419;51.276;6.472;2022-09-21T03:42:07;7.80;99.90
4811;DHT22;2419;51.276;6.472;2022-09-21T03:44:36;7.80;99.90
4811;DHT22;2419;51.276;6.472;2022-09-21T03:47:04;7.80;99.90
4811;DHT22;2419;51.276;6.472;2022-09-21T03:49:33;7.70;99.90
4811;DHT22;2419;51.276;6.472;2022-09-21T03:52:03;7.60;99.90
4811;DHT22;2419;51.276;6.472;2022-09-21T03:54:31;7.70;99.90
4811;DHT22;2419;51.276;6.472;2022-09-21T03:56:59;7.70;99.90
4811;DHT22;2419;51.276;6.472;2022-09-21T03:59:27;7.70;99.90
4811;DHT22;2419;51.276;6.472;2022-09-21T04:01:55;7.60;99.90
4811;DHT22;2419;51.276;6.472;2022-09-21T04:04:23;7.60;99.90
4811;DHT22;2419;51.276;6.472;2022-09-21T04:06:51;7.70;99.90
4811;DHT22;2419;51.276;6.472;2022-09-21T04:09:20;7.70;99.90
4811;DHT22;2419;51.276;6.472;2022-09-21T04:11:49;7.70;99.90
4811;DHT22;2419;51.276;6.472;2022-09-21T04:14:18;7.70;99.90
4811;DHT22;2419;51.276;6.472;2022-09-21T04:16:48;7.80;99.90
4811;DHT22;2419;51.276;6.472;2022-09-21T04:19:16;7.70;99.90
4811;DHT22;2419;51.276;6.472;2022-09-21T04:21:44;7.80;99.90
4811;DHT22;2419;51.276;6.472;2022-09-21T04:24:12;7.90;99.90
4811;DHT22;2419;51.276;6.472;2022-09-21T04:26:41;8.00;99.90
4811;DHT22;2419;51.276;6.472;2022-09-21T04:29:10;8.10;99.90
4811;DHT22;2419;51.276;6.472;2022-09-21T04:31:38;8.10;99.90
4811;DHT22;2419;51.276;6.472;2022-09-21T04:34:07;8.10;99.90
4811;DHT22;2419;51.276;6.472;2022-09-21T04:36:35;8.10;99.90
4811;DHT22;2419;51.276;6.472;2022-09-21T04:39:04;8.30;99.90
4811;DHT22;2419;51.276;6.472;2022-09-21T04:41:32;8.30;99.90
4811;DHT22;2419;51.276;6.472;2022-09-21T04:44:02;8.30;99.90
4811;DHT22;2419;51.276;6.472;2022-09-21T04:46:30;8.30;99.90
4811;DHT22;2419;51.276;6.472;2022-09-21T04:49:01;8.30;99.90
4811;DHT22;2419;51.276;6.472;2022-09-21T04:51:30;8.40;99.90
4811;DHT22;2419;51.276;6.472;2022-09-21T04:53:59;8.30;99.90
4811;DHT22;2419;51.276;6.472;2022-09-21T04:56:28;8.30;99.90
4811;DHT22;2419;51.276;6.472;2022-09-21T04:58:56;8.30;99.90
4811;DHT22;2419;51.276;6.472;2022-09-21T05:01:26;8.30;99.90
4811;DHT22;2419;51.276;6.472;2022-09-21T05:03:54;8.30;99.90
4811;DHT22;2419;51.276;6.472;2022-09-21T05:06:27;8.30;99.90
4811;DHT22;2419;51.276;6.472;2022-09-21T05:08:58;8.30;99.90
4811;DHT22;2419;51.276;6.472;2022-09-21T05:11:43;8.40;99.90
4811;DHT22;2419;51.276;6.472;2022-09-21T05:14:12;8.40;99.90
4811;DHT22;2419;51.276;6.472;2022-09-21T05:16:41;8.30;99.90
4811;DHT22;2419;51.276;6.472;2022-09-21T05:19:09;8.30;99.90
4811;DHT22;2419;51.276;6.472;2022-09-21T05:21:37;8.30;99.90
4811;DHT22;2419;51.276;6.472;2022-09-21T05:24:05;8.30;99.90
4811;DHT22;2419;51.276;6.472;2022-09-21T05:26:33;8.40;99.90
4811;DHT22;2419;51.276;6.472;2022-09-21T05:29:02;8.40;99.90
4811;DHT22;2419;51.276;6.472;2022-09-21T05:31:38;8.40;99.90
4811;DHT22;2419;51.276;6.472;2022-09-21T05:34:25;8.60;99.90
4811;DHT22;2419;51.276;6.472;2022-09-21T05:37:06;8.60;99.90
4811;DHT22;2419;51.276;6.472;2022-09-21T05:39:36;8.70;99.90
4811;DHT22;2419;51.276;6.472;2022-09-21T05:42:05;8.70;99.90
4811;DHT22;2419;51.276;6.472;2022-09-21T05:44:34;8.80;99.90
4811;DHT22;2419;51.276;6.472;2022-09-21T05:47:07;8.90;99.90
4811;DHT22;2419;51.276;6.472;2022-09-21T05:49:51;9.10;99.90
4811;DHT22;2419;51.276;6.472;2022-09-21T05:52:27;10.10;99.90
4811;DHT22;2419;51.276;6.472;2022-09-21T05:55:02;10.80;99.90
4811;DHT22;2419;51.276;6.472;2022-09-21T05:57:40;11.00;99.90
4811;DHT22;2419;51.276;6.472;2022-09-21T06:00:15;11.40;99.90
4811;DHT22;2419;51.276;6.472;2022-09-21T06:03:13;11.90;99.90
4811;DHT22;2419;51.276;6.472;2022-09-21T06:05:45;12.40;99.90
4811;DHT22;2419;51.276;6.472;2022-09-21T06:08:13;12.60;99.90
4811;DHT22;2419;51.276;6.472;2022-09-21T06:10:41;12.80;99.90
4811;DHT22;2419;51.276;6.472;2022-09-21T06:13:09;12.80;99.90
4811;DHT22;2419;51.276;6.472;2022-09-21T06:15:37;12.50;99.90
4811;DHT22;2419;51.276;6.472;2022-09-21T06:18:06;12.50;99.90
4811;DHT22;2419;51.276;6.472;2022-09-21T06:20:34;11.70;99.90
4811;DHT22;2419;51.276;6.472;2022-09-21T06:23:06;11.00;99.90
4811;DHT22;2419;51.276;6.472;2022-09-21T06:25:34;10.60;99.90
4811;DHT22;2419;51.276;6.472;2022-09-21T06:28:03;10.40;99.90
4811;DHT22;2419;51.276;6.472;2022-09-21T06:30:31;10.20;99.90
4811;DHT22;2419;51.276;6.472;2022-09-21T06:33:00;10.20;99.90
4811;DHT22;2419;51.276;6.472;2022-09-21T06:35:29;10.20;99.90
4811;DHT22;2419;51.276;6.472;2022-09-21T06:37:58;10.20;99.90
4811;DHT22;2419;51.276;6.472;2022-09-21T06:40:28;10.20;99.90
4811;DHT22;2419;51.276;6.472;2022-09-21T06:42:57;10.20;99.90
4811;DHT22;2419;51.276;6.472;2022-09-21T06:45:26;10.10;99.90
4811;DHT22;2419;51.276;6.472;2022-09-21T06:47:54;10.10;99.90
4811;DHT22;2419;51.276;6.472;2022-09-21T06:50:22;10.10;99.90
4811;DHT22;2419;51.276;6.472;2022-09-21T06:52:51;10.10;99.90
4811;DHT22;2419;51.276;6.472;2022-09-21T06:55:19;10.20;99.90
4811;DHT22;2419;51.276;6.472;2022-09-21T06:57:49;10.20;99.90
4811;DHT22;2419;51.276;6.472;2022-09-21T07:00:17;10.30;99.90
4811;DHT22;2419;51.276;6.472;2022-09-21T07:02:45;10.20;99.90
4811;DHT22;2419;51.276;6.472;2022-09-21T07:05:13;10.20;99.90
4811;DHT22;2419;51.276;6.472;2022-09-21T07:07:42;10.30;99.90
4811;DHT22;2419;51.276;6.472;2022-09-21T07:10:12;10.40;99.90
4811;DHT22;2419;51.276;6.472;2022-09-21T07:12:45;10.40;99.90
4811;DHT22;2419;51.276;6.472;2022-09-21T07:15:16;10.50;99.90
4811;DHT22;2419;51.276;6.472;2022-09-21T07:17:45;10.50;99.90
4811;DHT22;2419;51.276;6.472;2022-09-21T07:20:17;10.70;99.90
4811;DHT22;2419;51.276;6.472;2022-09-21T07:22:45;10.70;99.90
4811;DHT22;2419;51.276;6.472;2022-09-21T07:25:14;10.80;99.90
4811;DHT22;2419;51.276;6.472;2022-09-21T07:27:42;10.90;99.90
4811;DHT22;2419;51.276;6.472;2022-09-21T07:30:11;10.90;99.90
4811;DHT22;2419;51.276;6.472;2022-09-21T07:32:40;11.00;99.90
4811;DHT22;2419;51.276;6.472;2022-09-21T07:35:08;11.20;99.90
4811;DHT22;2419;51.276;6.472;2022-09-21T07:37:37;11.10;99.90
4811;DHT22;2419;51.276;6.472;2022-09-21T07:40:06;11.20;99.90
4811;DHT22;2419;51.276;6.472;2022-09-21T07:42:35;11.30;99.90
4811;DHT22;2419;51.276;6.472;2022-09-21T07:45:03;11.40;99.90
4811;DHT22;2419;51.276;6.472;2022-09-21T07:47:31;11.40;99.90
4811;DHT22;2419;51.276;6.472;2022-09-21T07:50:00;11.70;99.90
4811;DHT22;2419;51.276;6.472;2022-09-21T07:52:29;11.90;99.90
4811;DHT22;2419;51.276;6.472;2022-09-21T07:54:57;12.10;99.90
4811;DHT22;2419;51.276;6.472;2022-09-21T07:57:25;12.20;99.90
4811;DHT22;2419;51.276;6.472;2022-09-21T08:00:12;12.30;99.90
4811;DHT22;2419;51.276;6.472;2022-09-21T08:02:40;12.50;99.90
4811;DHT22;2419;51.276;6.472;2022-09-21T08:05:15;12.60;99.90
4811;DHT22;2419;51.276;6.472;2022-09-21T08:07:43;12.60;99.90
4811;DHT22;2419;51.276;6.472;2022-09-21T08:10:11;12.70;99.90
4811;DHT22;2419;51.276;6.472;2022-09-21T08:12:39;12.90;99.90
4811;DHT22;2419;51.276;6.472;2022-09-21T08:15:08;13.90;99.90
4811;DHT22;2419;51.276;6.472;2022-09-21T08:17:57;14.30;99.90
4811;DHT22;2419;51.276;6.472;2022-09-21T08:20:27;14.10;99.90
4811;DHT22;2419;51.276;6.472;2022-09-21T08:22:56;13.90;99.90
4811;DHT22;2419;51.276;6.472;2022-09-21T08:25:24;13.50;99.90
4811;DHT22;2419;51.276;6.472;2022-09-21T08:27:56;13.30;99.90
4811;DHT22;2419;51.276;6.472;2022-09-21T08:30:26;13.10;99.90
4811;DHT22;2419;51.276;6.472;2022-09-21T08:32:56;13.20;99.90
4811;DHT22;2419;51.276;6.472;2022-09-21T08:35:24;13.30;99.90
4811;DHT22;2419;51.276;6.472;2022-09-21T08:37:54;13.20;99.90
4811;DHT22;2419;51.276;6.472;2022-09-21T08:40:22;13.30;99.90
4811;DHT22;2419;51.276;6.472;2022-09-21T08:42:56;13.30;99.90
4811;DHT22;2419;51.276;6.472;2022-09-21T08:45:31;13.40;99.90
4811;DHT22;2419;51.276;6.472;2022-09-21T08:48:02;13.40;99.90
4811;DHT22;2419;51.276;6.472;2022-09-21T08:50:36;13.40;99.90
4811;DHT22;2419;51.276;6.472;2022-09-21T08:53:12;13.40;99.90
4811;DHT22;2419;51.276;6.472;2022-09-21T08:55:41;13.50;99.90
4811;DHT22;2419;51.276;6.472;2022-09-21T08:58:20;13.40;99.90
4811;DHT22;2419;51.276;6.472;2022-09-21T09:00:56;13.60;99.90
4811;DHT22;2419;51.276;6.472;2022-09-21T09:03:48;13.60;99.90
4811;DHT22;2419;51.276;6.472;2022-09-21T09:06:23;13.90;99.90
4811;DHT22;2419;51.276;6.472;2022-09-21T09:09:06;14.00;99.90
4811;DHT22;2419;51.276;6.472;2022-09-21T09:11:47;14.10;99.90
4811;DHT22;2419;51.276;6.472;2022-09-21T09:14:35;14.40;99.90
4811;DHT22;2419;51.276;6.472;2022-09-21T09:17:22;14.20;99.90
4811;DHT22;2419;51.276;6.472;2022-09-21T09:19:55;14.50;99.90
4811;DHT22;2419;51.276;6.472;2022-09-21T09:22:28;14.60;99.90
4811;DHT22;2419;51.276;6.472;2022-09-21T09:25:01;14.80;99.90
4811;DHT22;2419;51.276;6.472;2022-09-21T09:27:33;14.70;99.90
4811;DHT22;2419;51.276;6.472;2022-09-21T09:30:05;14.80;99.90
4811;DHT22;2419;51.276;6.472;2022-09-21T09:32:38;15.20;99.90
4811;DHT22;2419;51.276;6.472;2022-09-21T09:35:25;15.20;99.90
4811;DHT22;2419;51.276;6.472;2022-09-21T09:37:57;15.50;99.90
4811;DHT22;2419;51.276;6.472;2022-09-21T09:40:51;15.70;99.90
4811;DHT22;2419;51.276;6.472;2022-09-21T09:43:33;15.90;99.90
4811;DHT22;2419;51.276;6.472;2022-09-21T09:46:11;15.80;99.90
4811;DHT22;2419;51.276;6.472;2022-09-21T09:48:53;15.90;99.90
4811;DHT22;2419;51.276;6.472;2022-09-21T09:51:27;16.10;99.90
4811;DHT22;2419;51.276;6.472;2022-09-21T09:53:57;16.30;99.90
4811;DHT22;2419;51.276;6.472;2022-09-21T09:56:27;16.30;99.90
4811;DHT22;2419;51.276;6.472;2022-09-21T09:58:57;16.40;99.90
4811;DHT22;2419;51.276;6.472;2022-09-21T10:01:36;16.50;99.90
4811;DHT22;2419;51.276;6.472;2022-09-21T10:04:06;16.80;99.90
4811;DHT22;2419;51.276;6.472;2022-09-21T10:06:36;17.40;99.90
4811;DHT22;2419;51.276;6.472;2022-09-21T10:09:19;18.40;99.90
4811;DHT22;2419;51.276;6.472;2022-09-21T10:11:52;19.00;98.90
4811;DHT22;2419;51.276;6.472;2022-09-21T10:14:22;19.50;96.00
4811;DHT22;2419;51.276;6.472;2022-09-21T10:16:51;20.60;92.80
4811;DHT22;2419;51.276;6.472;2022-09-21T10:19:22;21.30;90.00
4811;DHT22;2419;51.276;6.472;2022-09-21T10:21:55;21.80;90.70
4811;DHT22;2419;51.276;6.472;2022-09-21T10:24:27;23.30;81.70
4811;DHT22;2419;51.276;6.472;2022-09-21T10:27:04;22.60;78.00
4811;DHT22;2419;51.276;6.472;2022-09-21T10:29:41;23.10;80.60
4811;DHT22;2419;51.276;6.472;2022-09-21T10:32:21;21.90;82.40
4811;DHT22;2419;51.276;6.472;2022-09-21T10:35:15;21.80;82.70
4811;DHT22;2419;51.276;6.472;2022-09-21T10:37:45;22.10;79.20
4811;DHT22;2419;51.276;6.472;2022-09-21T10:40:23;22.20;82.40
4811;DHT22;2419;51.276;6.472;2022-09-21T10:42:54;21.80;77.40
4811;DHT22;2419;51.276;6.472;2022-09-21T10:45:25;22.90;77.90
4811;DHT22;2419;51.276;6.472;2022-09-21T10:47:56;22.90;75.00
4811;DHT22;2419;51.276;6.472;2022-09-21T10:50:26;22.80;77.10
4811;DHT22;2419;51.276;6.472;2022-09-21T10:52:59;22.60;76.10
4811;DHT22;2419;51.276;6.472;2022-09-21T10:55:29;22.50;78.30
4811;DHT22;2419;51.276;6.472;2022-09-21T10:58:00;23.60;76.40
4811;DHT22;2419;51.276;6.472;2022-09-21T11:00:31;23.90;74.70
4811;DHT22;2419;51.276;6.472;2022-09-21T11:05:52;22.00;74.90
4811;DHT22;2419;51.276;6.472;2022-09-21T11:08:25;20.20;79.60
4811;DHT22;2419;51.276;6.472;2022-09-21T11:11:05;19.60;83.90
4811;DHT22;2419;51.276;6.472;2022-09-21T11:13:43;20.80;81.80
4811;DHT22;2419;51.276;6.472;2022-09-21T11:16:17;22.30;75.80
4811;DHT22;2419;51.276;6.472;2022-09-21T11:18:56;22.30;74.30
4811;DHT22;2419;51.276;6.472;2022-09-21T11:21:38;21.40;73.60
4811;DHT22;2419;51.276;6.472;2022-09-21T11:24:25;21.00;77.60
4811;DHT22;2419;51.276;6.472;2022-09-21T11:27:05;21.30;76.30
4811;DHT22;2419;51.276;6.472;2022-09-21T11:29:48;19.90;80.50
4811;DHT22;2419;51.276;6.472;2022-09-21T11:32:40;19.90;87.60
4811;DHT22;2419;51.276;6.472;2022-09-21T11:38:11;21.40;80.30
4811;DHT22;2419;51.276;6.472;2022-09-21T11:41:02;22.00;75.80
4811;DHT22;2419;51.276;6.472;2022-09-21T11:43:46;23.50;72.10
4811;DHT22;2419;51.276;6.472;2022-09-21T11:46:24;23.60;70.00
4811;DHT22;2419;51.276;6.472;2022-09-21T11:49:06;23.50;69.20
4811;DHT22;2419;51.276;6.472;2022-09-21T11:51:50;22.10;72.30
4811;DHT22;2419;51.276;6.472;2022-09-21T11:57:55;20.00;78.40
4811;DHT22;2419;51.276;6.472;2022-09-21T12:00:27;20.00;78.00
4811;DHT22;2419;51.276;6.472;2022-09-21T12:06:12;18.80;79.50
4811;DHT22;2419;51.276;6.472;2022-09-21T12:09:01;18.40;88.80
4811;DHT22;2419;51.276;6.472;2022-09-21T12:11:38;19.50;83.10
4811;DHT22;2419;51.276;6.472;2022-09-21T12:14:17;19.90;80.90
4811;DHT22;2419;51.276;6.472;2022-09-21T12:16:55;20.20;79.50
4811;DHT22;2419;51.276;6.472;2022-09-21T12:19:36;20.10;76.30
4811;DHT22;2419;51.276;6.472;2022-09-21T12:22:09;20.00;77.80
4811;DHT22;2419;51.276;6.472;2022-09-21T12:24:41;20.40;75.10
4811;DHT22;2419;51.276;6.472;2022-09-21T12:27:16;21.20;73.30
4811;DHT22;2419;51.276;6.472;2022-09-21T12:29:48;22.20;70.20
4811;DHT22;2419;51.276;6.472;2022-09-21T12:32:24;22.80;69.60
4811;DHT22;2419;51.276;6.472;2022-09-21T12:34:55;23.60;64.30
4811;DHT22;2419;51.276;6.472;2022-09-21T12:37:30;23.50;63.60
4811;DHT22;2419;51.276;6.472;2022-09-21T12:40:04;22.80;65.30
4811;DHT22;2419;51.276;6.472;2022-09-21T12:42:39;22.40;67.20
4811;DHT22;2419;51.276;6.472;2022-09-21T12:45:14;23.20;67.90
4811;DHT22;2419;51.276;6.472;2022-09-21T12:47:48;23.10;66.20
4811;DHT22;2419;51.276;6.472;2022-09-21T12:50:24;23.10;64.30
4811;DHT22;2419;51.276;6.472;2022-09-21T12:52:55;22.90;65.40
4811;DHT22;2419;51.276;6.472;2022-09-21T12:55:33;23.30;65.00
4811;DHT22;2419;51.276;6.472;2022-09-21T12:58:14;23.10;66.40
4811;DHT22;2419;51.276;6.472;2022-09-21T13:00:50;23.80;65.10
4811;DHT22;2419;51.276;6.472;2022-09-21T13:03:26;22.80;65.50
4811;DHT22;2419;51.276;6.472;2022-09-21T13:06:21;21.80;63.20
4811;DHT22;2419;51.276;6.472;2022-09-21T13:08:59;21.40;64.90
4811;DHT22;2419;51.276;6.472;2022-09-21T13:11:33;20.80;65.70
4811;DHT22;2419;51.276;6.472;2022-09-21T13:14:02;21.00;67.50
4811;DHT22;2419;51.276;6.472;2022-09-21T13:16:32;20.90;65.50
4811;DHT22;2419;51.276;6.472;2022-09-21T13:19:03;20.80;64.60
4811;DHT22;2419;51.276;6.472;2022-09-21T13:21:32;20.80;64.40
4811;DHT22;2419;51.276;6.472;2022-09-21T13:24:03;21.30;65.80
4811;DHT22;2419;51.276;6.472;2022-09-21T13:26:35;21.80;68.90
4811;DHT22;2419;51.276;6.472;2022-09-21T13:31:54;21.70;66.40
4811;DHT22;2419;51.276;6.472;2022-09-21T13:34:31;20.80;67.30
4811;DHT22;2419;51.276;6.472;2022-09-21T13:37:33;20.50;67.90
4811;DHT22;2419;51.276;6.472;2022-09-21T13:43:20;19.60;66.10
4811;DHT22;2419;51.276;6.472;2022-09-21T13:45:52;19.70;68.20
4811;DHT22;2419;51.276;6.472;2022-09-21T13:48:25;19.80;66.80
4811;DHT22;2419;51.276;6.472;2022-09-21T13:50:56;19.60;65.00
4811;DHT22;2419;51.276;6.472;2022-09-21T13:53:30;19.70;64.80
4811;DHT22;2419;51.276;6.472;2022-09-21T13:56:06;19.50;65.20
4811;DHT22;2419;51.276;6.472;2022-09-21T13:58:40;19.30;63.30
4811;DHT22;2419;51.276;6.472;2022-09-21T14:01:16;19.50;65.60
4811;DHT22;2419;51.276;6.472;2022-09-21T14:04:17;19.20;65.30
4811;DHT22;2419;51.276;6.472;2022-09-21T14:06:48;19.40;68.20
4811;DHT22;2419;51.276;6.472;2022-09-21T14:09:22;19.50;68.70
4811;DHT22;2419;51.276;6.472;2022-09-21T14:11:56;19.50;69.80
4811;DHT22;2419;51.276;6.472;2022-09-21T14:14:29;19.50;69.10
4811;DHT22;2419;51.276;6.472;2022-09-21T14:16:59;19.40;71.20
4811;DHT22;2419;51.276;6.472;2022-09-21T14:22:42;19.70;70.30
4811;DHT22;2419;51.276;6.472;2022-09-21T14:25:28;19.50;67.20
4811;DHT22;2419;51.276;6.472;2022-09-21T14:27:59;19.00;67.10
4811;DHT22;2419;51.276;6.472;2022-09-21T14:30:33;18.70;66.00
4811;DHT22;2419;51.276;6.472;2022-09-21T14:35:53;18.60;68.10
4811;DHT22;2419;51.276;6.472;2022-09-21T14:38:26;18.70;67.90
4811;DHT22;2419;51.276;6.472;2022-09-21T14:40:58;18.80;68.10
4811;DHT22;2419;51.276;6.472;2022-09-21T14:43:30;18.70;68.60
4811;DHT22;2419;51.276;6.472;2022-09-21T14:46:17;19.00;68.30
4811;DHT22;2419;51.276;6.472;2022-09-21T14:48:57;19.00;69.00
4811;DHT22;2419;51.276;6.472;2022-09-21T14:51:33;19.10;67.40
4811;DHT22;2419;51.276;6.472;2022-09-21T14:54:21;19.10;67.50
4811;DHT22;2419;51.276;6.472;2022-09-21T14:57:14;19.20;66.40
4811;DHT22;2419;51.276;6.472;2022-09-21T14:59:59;19.30;67.80
4811;DHT22;2419;51.276;6.472;2022-09-21T15:02:33;19.30;68.70
4811;DHT22;2419;51.276;6.472;2022-09-21T15:05:18;19.50;68.20
4811;DHT22;2419;51.276;6.472;2022-09-21T15:08:01;19.10;67.40
4811;DHT22;2419;51.276;6.472;2022-09-21T15:10:53;19.20;67.90
4811;DHT22;2419;51.276;6.472;2022-09-21T15:16:29;19.00;69.30
4811;DHT22;2419;51.276;6.472;2022-09-21T15:19:14;19.20;68.70
4811;DHT22;2419;51.276;6.472;2022-09-21T15:21:44;19.30;70.10
4811;DHT22;2419;51.276;6.472;2022-09-21T15:24:22;19.40;68.00
4811;DHT22;2419;51.276;6.472;2022-09-21T15:26:54;19.40;70.70
4811;DHT22;2419;51.276;6.472;2022-09-21T15:29:29;19.10;71.70
4811;DHT22;2419;51.276;6.472;2022-09-21T15:31:59;19.00;74.00
4811;DHT22;2419;51.276;6.472;2022-09-21T15:34:29;18.90;72.30
4811;DHT22;2419;51.276;6.472;2022-09-21T15:37:14;18.70;72.00
4811;DHT22;2419;51.276;6.472;2022-09-21T15:39:43;18.90;73.70
4811;DHT22;2419;51.276;6.472;2022-09-21T15:42:17;18.90;72.50
4811;DHT22;2419;51.276;6.472;2022-09-21T15:44:49;19.00;72.20
4811;DHT22;2419;51.276;6.472;2022-09-21T15:47:22;18.90;72.80
4811;DHT22;2419;51.276;6.472;2022-09-21T15:49:53;18.70;72.70
4811;DHT22;2419;51.276;6.472;2022-09-21T15:52:26;18.40;71.70
4811;DHT22;2419;51.276;6.472;2022-09-21T15:54:57;18.20;73.90
4811;DHT22;2419;51.276;6.472;2022-09-21T15:57:31;18.00;73.30
4811;DHT22;2419;51.276;6.472;2022-09-21T16:00:16;17.80;76.10
4811;DHT22;2419;51.276;6.472;2022-09-21T16:02:57;17.70;75.90
4811;DHT22;2419;51.276;6.472;2022-09-21T16:05:42;17.70;78.30
4811;DHT22;2419;51.276;6.472;2022-09-21T16:08:26;17.70;78.30
4811;DHT22;2419;51.276;6.472;2022-09-21T16:11:12;17.70;80.30
4811;DHT22;2419;51.276;6.472;2022-09-21T16:13:41;17.60;80.60
4811;DHT22;2419;51.276;6.472;2022-09-21T16:16:27;17.60;80.70
4811;DHT22;2419;51.276;6.472;2022-09-21T16:18:56;17.50;80.90
4811;DHT22;2419;51.276;6.472;2022-09-21T16:21:29;17.40;80.80
4811;DHT22;2419;51.276;6.472;2022-09-21T16:24:08;17.30;80.40
4811;DHT22;2419;51.276;6.472;2022-09-21T16:26:39;17.20;83.40
4811;DHT22;2419;51.276;6.472;2022-09-21T16:29:19;17.10;83.60
4811;DHT22;2419;51.276;6.472;2022-09-21T16:31:49;17.00;84.60
4811;DHT22;2419;51.276;6.472;2022-09-21T16:34:28;16.80;86.10
4811;DHT22;2419;51.276;6.472;2022-09-21T16:37:21;16.80;90.30
4811;DHT22;2419;51.276;6.472;2022-09-21T16:39:51;16.70;90.70
4811;DHT22;2419;51.276;6.472;2022-09-21T16:42:20;16.60;91.60
4811;DHT22;2419;51.276;6.472;2022-09-21T16:44:49;16.40;92.40
4811;DHT22;2419;51.276;6.472;2022-09-21T16:47:20;16.30;93.80
4811;DHT22;2419;51.276;6.472;2022-09-21T16:49:51;16.20;99.90
4811;DHT22;2419;51.276;6.472;2022-09-21T16:52:24;16.20;99.90
4811;DHT22;2419;51.276;6.472;2022-09-21T16:54:54;16.10;99.90
4811;DHT22;2419;51.276;6.472;2022-09-21T16:57:24;16.00;1.00
4811;DHT22;2419;51.276;6.472;2022-09-21T16:59:53;15.90;99.90
4811;DHT22;2419;51.276;6.472;2022-09-21T17:02:21;15.90;37.70
4811;DHT22;2419;51.276;6.472;2022-09-21T17:04:50;15.70;99.90
4811;DHT22;2419;51.276;6.472;2022-09-21T17:07:18;15.70;99.90
4811;DHT22;2419;51.276;6.472;2022-09-21T17:09:48;15.60;1.00
4811;DHT22;2419;51.276;6.472;2022-09-21T17:12:17;15.60;99.90
4811;DHT22;2419;51.276;6.472;2022-09-21T17:14:46;15.50;1.00